PROFILE

 METAR AND TAF INFORMATION
ADDS - METARS form results

(0419 UTC 25 April 2019)
http://aviationweather.gov/metar/data/
 
TFFF 250400Z AUTO 09006KT 9999 FEW020 SCT028 BKN040 25/24 Q1015
TFFF 250330Z AUTO 07006KT 040V100 9999 -RA FEW017/// BKN031/// BKN040/// ///TCU 25/23 Q1015
TAF AMD TFFF 241817Z 2418/2518 07008KT 9999 SCT025 BKN040 TEMPO 2420/2518 4000 SHRA BKN020TCU BKN030 PROB30 TEMPO 2512/2518 2500 SHRA BKN015CB BKN020 

 AIRPORT MAP

 RUNWAY INFORMATION
Runway 10 Runway length 10826 ft Runway width 147 ft
Runway elevation 10 ft Runway displaced threshold 0 ft Runway heading 80
Runway 28 Runway length 10826 ft Runway width 147 ft
Runway elevation 14 ft Runway displaced threshold 984 ft Runway heading 260

 AIRPORT FREQUENCIES
Type APP Name FORT DE FR Frequency 121 MHZ
Type ATIS Name ATIS Frequency 127.85 MHZ
Type GND Name GND Frequency 121.9 MHZ
Type TWR Name FORT DE FR Frequency 118.5 MHZ

 AIRPORT NEAR NAVIGATION AIDS
Type VOR-DME Name Fort De France Frequency 113300 KHZ
Type NDB Name Fort De France Frequency 329 KHZ